createdAt,value
2023-04-09T00:01:07.151Z,13.60
2023-04-09T00:03:37.356Z,12.50
2023-04-09T00:06:06.155Z,12.90
2023-04-09T00:08:34.387Z,13.40
2023-04-09T00:11:02.845Z,13.00
2023-04-09T00:13:39.232Z,12.20
2023-04-09T00:16:08.917Z,14.10
2023-04-09T00:18:37.510Z,12.10
2023-04-09T00:21:05.868Z,13.10
2023-04-09T00:23:34.527Z,13.70
2023-04-09T00:26:02.818Z,12.10
2023-04-09T00:28:31.521Z,12.10
2023-04-09T00:30:59.696Z,12.00
2023-04-09T00:33:27.997Z,13.00
2023-04-09T00:42:33.816Z,12.80
2023-04-09T00:45:02.380Z,12.50
2023-04-09T00:47:31.188Z,12.00
2023-04-09T00:50:01.468Z,13.00
2023-04-09T00:52:31.151Z,12.90
2023-04-09T00:55:01.350Z,14.10
2023-04-09T00:57:29.460Z,13.30
2023-04-09T00:59:57.871Z,13.50
2023-04-09T01:02:26.856Z,16.50
2023-04-09T01:04:55.374Z,15.90
2023-04-09T01:08:02.437Z,16.60
2023-04-09T01:10:47.794Z,15.50
2023-04-09T01:13:24.636Z,15.20
2023-04-09T01:15:57.310Z,16.20
2023-04-09T01:18:49.302Z,15.00
2023-04-09T01:21:22.577Z,15.30
2023-04-09T01:24:11.120Z,17.20
2023-04-09T01:27:08.366Z,16.70
2023-04-09T01:29:53.725Z,18.30
2023-04-09T01:32:23.290Z,15.70
2023-04-09T01:34:52.120Z,16.30
2023-04-09T01:37:21.022Z,14.70
2023-04-09T01:39:49.164Z,17.10
2023-04-09T01:42:18.586Z,13.50
2023-04-09T01:44:47.023Z,13.40
2023-04-09T01:47:16.008Z,14.20
2023-04-09T01:49:45.022Z,14.10
2023-04-09T01:52:13.498Z,14.50
2023-04-09T01:54:42.926Z,13.50
2023-04-09T01:57:11.476Z,13.30
2023-04-09T01:59:39.582Z,13.80
2023-04-09T02:02:17.872Z,13.20
2023-04-09T02:04:49.485Z,13.30
2023-04-09T02:07:22.825Z,12.70
2023-04-09T02:09:53.617Z,12.30
2023-04-09T02:12:22.387Z,12.10
2023-04-09T02:14:52.314Z,12.90
2023-04-09T02:17:20.961Z,11.90
2023-04-09T02:19:49.615Z,13.00
2023-04-09T02:22:17.941Z,11.90
2023-04-09T02:24:49.139Z,13.20
2023-04-09T02:27:17.448Z,12.40
2023-04-09T02:29:45.671Z,12.80
2023-04-09T02:32:14.185Z,12.60
2023-04-09T02:34:42.610Z,12.40
2023-04-09T02:37:11.021Z,12.90
2023-04-09T02:39:39.164Z,12.20
2023-04-09T02:42:08.100Z,12.70
2023-04-09T02:44:36.356Z,11.90
2023-04-09T02:47:04.613Z,14.10
2023-04-09T02:49:33.145Z,11.30
2023-04-09T02:52:01.258Z,11.30
2023-04-09T02:54:29.609Z,12.10
2023-04-09T02:56:57.657Z,11.40
2023-04-09T02:59:25.749Z,11.80
2023-04-09T03:01:54.225Z,11.00
2023-04-09T03:04:22.598Z,11.60
2023-04-09T03:06:51.723Z,11.80
2023-04-09T03:09:19.929Z,11.60
2023-04-09T03:11:48.211Z,11.10
2023-04-09T03:14:16.381Z,10.70
2023-04-09T03:16:46.194Z,10.50
2023-04-09T03:19:14.362Z,10.50
2023-04-09T03:21:43.198Z,9.00
2023-04-09T03:24:12.437Z,8.90
2023-04-09T03:26:41.570Z,10.50
2023-04-09T03:29:10.334Z,10.00
2023-04-09T03:31:38.503Z,9.50
2023-04-09T03:34:06.814Z,9.00
2023-04-09T03:36:35.083Z,10.30
2023-04-09T03:39:11.965Z,9.60
2023-04-09T03:41:43.427Z,9.30
2023-04-09T03:44:15.393Z,9.90
2023-04-09T03:46:56.743Z,9.10
2023-04-09T03:49:25.438Z,9.50
2023-04-09T03:51:54.668Z,8.70
2023-04-09T03:54:24.686Z,10.50
2023-04-09T03:56:54.311Z,9.30
2023-04-09T03:59:24.452Z,8.20
2023-04-09T04:01:53.352Z,8.20
2023-04-09T04:04:23.775Z,8.70
2023-04-09T04:06:56.791Z,7.90
2023-04-09T04:09:34.294Z,7.90
2023-04-09T04:12:06.612Z,8.00
2023-04-09T04:14:53.081Z,8.30
2023-04-09T04:17:33.225Z,8.60
2023-04-09T04:20:02.537Z,9.30
2023-04-09T04:22:35.820Z,9.10
2023-04-09T04:25:05.209Z,8.60
2023-04-09T04:27:33.409Z,8.80
2023-04-09T04:30:02.525Z,8.40
2023-04-09T04:32:53.778Z,10.20
2023-04-09T04:35:23.053Z,8.90
2023-04-09T04:37:54.079Z,8.90
2023-04-09T04:40:22.493Z,8.10
2023-04-09T04:42:53.131Z,9.20
2023-04-09T04:45:21.561Z,7.90
2023-04-09T04:47:53.059Z,9.10
2023-04-09T04:50:21.426Z,9.20
2023-04-09T04:52:59.763Z,9.50
2023-04-09T04:55:31.221Z,8.40
2023-04-09T04:58:01.497Z,8.00
2023-04-09T05:00:31.793Z,7.30
2023-04-09T05:03:02.019Z,6.20
2023-04-09T05:05:59.956Z,6.90
2023-04-09T05:08:31.034Z,7.00
2023-04-09T05:10:59.478Z,6.50
2023-04-09T05:13:33.547Z,5.90
2023-04-09T05:16:02.731Z,6.50
2023-04-09T05:18:32.241Z,6.20
2023-04-09T05:21:00.867Z,6.20
2023-04-09T05:23:30.532Z,5.30
2023-04-09T05:25:58.584Z,4.90
2023-04-09T05:28:44.913Z,4.50
2023-04-09T05:31:17.376Z,5.40
2023-04-09T05:33:58.056Z,5.10
2023-04-09T05:36:34.686Z,4.70
2023-04-09T05:39:03.579Z,4.30
2023-04-09T05:41:33.669Z,4.40
2023-04-09T05:44:20.633Z,4.30
2023-04-09T05:46:49.865Z,4.20
2023-04-09T05:49:20.933Z,5.00
2023-04-09T05:51:51.715Z,5.60
2023-04-09T05:54:26.215Z,5.40
2023-04-09T05:56:54.429Z,5.30
2023-04-09T05:59:23.084Z,5.80
2023-04-09T06:01:51.509Z,5.90
2023-04-09T06:04:19.762Z,5.60
2023-04-09T06:06:48.236Z,4.90
2023-04-09T06:09:16.496Z,5.30
2023-04-09T06:11:44.570Z,5.60
2023-04-09T06:14:16.590Z,5.70
2023-04-09T06:16:44.876Z,6.80
2023-04-09T06:19:16.836Z,4.90
2023-04-09T06:21:44.981Z,4.40
2023-04-09T06:24:13.182Z,4.80
2023-04-09T06:26:41.622Z,4.80
2023-04-09T06:29:09.740Z,5.00
2023-04-09T06:31:38.244Z,5.20
2023-04-09T06:34:06.684Z,5.40
2023-04-09T06:36:37.739Z,4.60
2023-04-09T06:39:06.880Z,4.60
2023-04-09T06:41:34.970Z,4.70
2023-04-09T06:44:08.422Z,4.50
2023-04-09T06:46:36.741Z,5.00
2023-04-09T06:49:04.786Z,5.60
2023-04-09T06:51:32.958Z,5.20
2023-04-09T06:54:01.267Z,5.50
2023-04-09T06:56:29.301Z,5.20
2023-04-09T06:58:57.671Z,5.80
2023-04-09T07:01:26.616Z,5.30
2023-04-09T07:03:55.324Z,6.70
2023-04-09T07:06:24.082Z,6.10
2023-04-09T07:08:52.797Z,5.70
2023-04-09T07:11:21.639Z,6.30
2023-04-09T07:13:50.581Z,5.10
2023-04-09T07:16:18.764Z,6.20
2023-04-09T07:18:47.112Z,5.60
2023-04-09T07:21:16.475Z,6.30
2023-04-09T07:23:44.999Z,5.40
2023-04-09T07:26:13.090Z,5.10
2023-04-09T07:28:42.314Z,5.20
2023-04-09T07:31:11.603Z,4.50
2023-04-09T07:33:39.805Z,4.20
2023-04-09T07:36:08.767Z,4.50
2023-04-09T07:38:37.172Z,3.90
2023-04-09T07:41:05.799Z,4.80
2023-04-09T07:43:34.028Z,5.10
2023-04-09T07:46:02.258Z,4.80
2023-04-09T07:48:30.531Z,4.90
2023-04-09T07:50:58.662Z,5.00
2023-04-09T07:53:26.859Z,4.90
2023-04-09T07:55:54.982Z,5.10
2023-04-09T07:58:23.197Z,4.30
2023-04-09T08:00:51.456Z,4.50
2023-04-09T08:03:19.750Z,4.60
2023-04-09T08:05:48.606Z,5.20
2023-04-09T08:08:17.158Z,5.10
2023-04-09T08:10:45.377Z,4.60
2023-04-09T08:13:13.544Z,4.70
2023-04-09T08:15:41.951Z,5.00
2023-04-09T08:18:10.174Z,5.60
2023-04-09T08:20:45.127Z,5.30
2023-04-09T08:23:14.030Z,4.90
2023-04-09T08:25:42.110Z,4.60
2023-04-09T08:28:10.284Z,5.10
2023-04-09T08:30:38.739Z,5.50
2023-04-09T08:33:07.114Z,5.70
2023-04-09T08:35:35.302Z,4.90
2023-04-09T08:38:03.360Z,5.40
2023-04-09T08:40:35.024Z,5.00
2023-04-09T08:43:09.425Z,5.20
2023-04-09T08:45:41.185Z,5.90
2023-04-09T08:48:14.031Z,5.30
2023-04-09T08:50:42.440Z,4.90
2023-04-09T08:53:11.235Z,4.80
2023-04-09T08:55:45.755Z,5.70
2023-04-09T08:58:14.507Z,4.80
2023-04-09T09:00:43.049Z,4.20
2023-04-09T09:03:15.407Z,4.40
2023-04-09T09:08:23.321Z,4.40
2023-04-09T09:10:52.018Z,4.30
2023-04-09T09:13:25.287Z,3.80
2023-04-09T09:16:03.343Z,3.50
2023-04-09T09:18:42.396Z,4.40
2023-04-09T09:21:12.151Z,3.80
2023-04-09T09:23:40.527Z,3.80
2023-04-09T09:26:18.383Z,4.20
2023-04-09T09:28:48.444Z,3.90
2023-04-09T09:31:18.814Z,3.90
2023-04-09T09:33:48.647Z,4.60
2023-04-09T09:36:33.724Z,3.50
2023-04-09T09:39:10.052Z,3.40
2023-04-09T09:41:38.829Z,3.50
2023-04-09T09:44:08.942Z,4.10
2023-04-09T09:46:39.563Z,3.30
2023-04-09T09:49:08.963Z,3.80
2023-04-09T09:51:39.717Z,3.10
2023-04-09T09:54:13.055Z,3.50
2023-04-09T09:56:44.161Z,3.20
2023-04-09T09:59:34.577Z,3.20
2023-04-09T10:02:11.228Z,3.50
2023-04-09T10:04:40.752Z,3.40
2023-04-09T10:07:09.270Z,4.20
2023-04-09T10:09:46.042Z,3.60
2023-04-09T10:12:14.447Z,3.70
2023-04-09T10:14:43.638Z,3.50
2023-04-09T10:17:12.111Z,3.20
2023-04-09T10:19:46.363Z,3.10
2023-04-09T10:22:21.640Z,3.30
2023-04-09T10:24:51.497Z,2.80
2023-04-09T10:27:19.677Z,3.90
2023-04-09T10:29:49.473Z,3.90
2023-04-09T10:32:26.866Z,3.00
2023-04-09T10:35:01.776Z,2.70
2023-04-09T10:37:30.178Z,3.00
2023-04-09T10:39:58.832Z,3.10
2023-04-09T10:42:32.869Z,3.00
2023-04-09T10:45:12.384Z,3.00
2023-04-09T10:47:42.934Z,3.00
2023-04-09T10:50:24.108Z,2.40
2023-04-09T10:52:54.727Z,2.50
2023-04-09T10:55:38.393Z,2.80
2023-04-09T10:58:11.328Z,2.60
2023-04-09T11:00:45.545Z,2.70
2023-04-09T11:03:32.862Z,2.40
2023-04-09T11:06:09.478Z,3.30
2023-04-09T11:08:38.985Z,3.20
2023-04-09T11:11:07.431Z,3.00
2023-04-09T11:13:35.651Z,2.40
2023-04-09T11:16:07.219Z,2.60
2023-04-09T11:18:37.170Z,2.80
2023-04-09T11:21:06.023Z,2.70
2023-04-09T11:23:34.901Z,3.10
2023-04-09T11:26:03.127Z,2.50
2023-04-09T11:28:31.452Z,2.90
2023-04-09T11:30:59.590Z,3.50
2023-04-09T11:33:34.565Z,3.20
2023-04-09T11:36:05.910Z,3.30
2023-04-09T11:38:34.047Z,3.30
2023-04-09T11:41:02.436Z,3.40
2023-04-09T11:43:30.625Z,3.40
2023-04-09T11:45:59.579Z,2.90
2023-04-09T11:48:28.032Z,3.00
2023-04-09T11:50:57.267Z,3.00
2023-04-09T11:53:30.997Z,2.50
2023-04-09T11:55:59.393Z,2.80
2023-04-09T11:58:28.167Z,3.00
2023-04-09T12:00:58.967Z,2.70
2023-04-09T12:03:33.480Z,2.70
2023-04-09T12:06:03.365Z,3.00
2023-04-09T12:08:35.697Z,3.10
2023-04-09T12:11:15.796Z,3.00
2023-04-09T12:13:45.850Z,3.10
2023-04-09T12:16:14.652Z,2.80
2023-04-09T12:18:43.123Z,3.70
2023-04-09T12:21:11.504Z,3.00
2023-04-09T12:23:39.863Z,3.00
2023-04-09T12:26:08.230Z,3.10
2023-04-09T12:28:36.331Z,2.90
2023-04-09T12:31:04.486Z,3.20
2023-04-09T12:33:32.623Z,3.10
2023-04-09T12:36:00.792Z,2.60
2023-04-09T12:38:29.076Z,2.70
2023-04-09T12:40:57.294Z,2.80
2023-04-09T12:43:25.522Z,2.90
2023-04-09T12:45:53.582Z,2.70
2023-04-09T12:48:21.698Z,2.90
2023-04-09T12:50:49.781Z,2.90
2023-04-09T12:53:18.527Z,2.60
2023-04-09T12:55:47.012Z,2.20
2023-04-09T12:58:15.649Z,2.50
2023-04-09T13:00:43.803Z,2.60
2023-04-09T13:03:12.556Z,2.60
2023-04-09T13:05:40.832Z,2.70
2023-04-09T13:08:08.973Z,2.80
2023-04-09T13:10:37.052Z,3.30
2023-04-09T13:13:06.345Z,2.60
2023-04-09T13:15:34.574Z,2.90
2023-04-09T13:18:03.230Z,3.20
2023-04-09T13:20:31.559Z,3.00
2023-04-09T13:22:59.865Z,3.00
2023-04-09T13:25:27.979Z,2.90
2023-04-09T13:27:56.184Z,3.00
2023-04-09T13:30:24.617Z,2.90
2023-04-09T13:32:52.688Z,2.30
2023-04-09T13:35:21.040Z,2.50
2023-04-09T13:37:49.145Z,2.20
2023-04-09T13:40:17.320Z,2.50
2023-04-09T13:42:45.464Z,2.40
2023-04-09T13:45:13.551Z,3.10
2023-04-09T13:47:43.144Z,2.40
2023-04-09T13:50:13.335Z,2.20
2023-04-09T13:52:41.459Z,1.90
2023-04-09T13:55:09.879Z,2.30
2023-04-09T13:57:38.102Z,2.50
2023-04-09T14:00:08.290Z,2.00
2023-04-09T14:02:36.520Z,2.20
2023-04-09T14:05:05.148Z,2.20
2023-04-09T14:07:33.480Z,1.70
2023-04-09T14:10:01.970Z,1.90
2023-04-09T14:12:30.159Z,2.00
2023-04-09T14:14:58.466Z,2.00
2023-04-09T14:17:26.886Z,2.10
2023-04-09T14:19:55.074Z,2.40
2023-04-09T14:22:23.183Z,2.00
2023-04-09T14:24:51.537Z,2.10
2023-04-09T14:27:19.684Z,2.30
2023-04-09T14:29:48.375Z,2.40
2023-04-09T14:32:16.494Z,2.50
2023-04-09T14:34:44.985Z,2.30
2023-04-09T14:37:13.069Z,2.70
2023-04-09T14:39:41.127Z,2.30
2023-04-09T14:42:09.317Z,2.00
2023-04-09T14:44:37.482Z,2.30
2023-04-09T14:47:05.562Z,2.00
2023-04-09T14:49:34.090Z,2.10
2023-04-09T14:52:02.311Z,2.30
2023-04-09T14:54:31.506Z,2.70
2023-04-09T14:56:59.893Z,2.60
2023-04-09T14:59:28.199Z,2.10
2023-04-09T15:01:56.440Z,2.70
2023-04-09T15:04:25.028Z,2.70
2023-04-09T15:06:53.572Z,2.40
2023-04-09T15:09:21.605Z,2.20
2023-04-09T15:11:49.649Z,2.00
2023-04-09T15:14:17.898Z,2.20
2023-04-09T15:16:46.174Z,2.20
2023-04-09T15:19:14.420Z,2.00
2023-04-09T15:21:43.344Z,2.40
2023-04-09T15:24:11.641Z,2.20
2023-04-09T15:26:39.782Z,2.70
2023-04-09T15:29:08.431Z,2.30
2023-04-09T15:31:38.454Z,2.40
2023-04-09T15:34:07.732Z,3.40
2023-04-09T15:36:36.056Z,2.60
2023-04-09T15:39:07.075Z,2.50
2023-04-09T15:41:35.312Z,2.20
2023-04-09T15:44:04.086Z,2.20
2023-04-09T15:46:32.126Z,2.50
2023-04-09T15:49:01.231Z,2.90
2023-04-09T15:51:29.388Z,2.60
2023-04-09T15:53:58.362Z,2.90
2023-04-09T15:56:26.454Z,3.00
2023-04-09T15:58:55.103Z,3.10
2023-04-09T16:01:23.488Z,2.30
2023-04-09T16:03:52.459Z,2.90
2023-04-09T16:06:21.212Z,2.70
2023-04-09T16:08:49.561Z,3.00
2023-04-09T16:11:18.072Z,2.90
2023-04-09T16:13:46.373Z,3.30
2023-04-09T16:16:14.671Z,3.00
2023-04-09T16:18:42.861Z,2.20
2023-04-09T16:21:11.305Z,2.90
2023-04-09T16:23:39.902Z,2.90
2023-04-09T16:26:08.178Z,2.80
2023-04-09T16:28:36.545Z,2.80
2023-04-09T16:31:04.784Z,3.00
2023-04-09T16:33:33.098Z,3.10
2023-04-09T16:36:01.290Z,3.30
2023-04-09T16:38:31.116Z,2.90
2023-04-09T16:40:59.517Z,3.50
2023-04-09T16:43:27.757Z,3.40
2023-04-09T16:45:55.825Z,3.20
2023-04-09T16:48:24.226Z,2.50
2023-04-09T16:50:52.723Z,3.10
2023-04-09T16:53:21.040Z,2.30
2023-04-09T16:55:49.188Z,3.10
2023-04-09T16:58:17.682Z,4.60
2023-04-09T17:00:47.206Z,3.70
2023-04-09T17:03:16.527Z,5.30
2023-04-09T17:05:49.429Z,5.20
2023-04-09T17:08:18.698Z,4.20
2023-04-09T17:10:46.898Z,3.50
2023-04-09T17:13:15.057Z,3.10
2023-04-09T17:15:43.708Z,3.50
2023-04-09T17:18:12.188Z,3.70
2023-04-09T17:20:40.580Z,3.50
2023-04-09T17:23:08.927Z,4.50
2023-04-09T17:25:37.738Z,4.40
2023-04-09T17:28:06.249Z,3.70
2023-04-09T17:30:35.036Z,3.80
2023-04-09T17:33:03.554Z,3.30
2023-04-09T17:35:32.746Z,3.90
2023-04-09T17:38:01.770Z,4.00
2023-04-09T17:40:30.476Z,4.60
2023-04-09T17:43:00.196Z,4.80
2023-04-09T17:45:28.466Z,4.70
2023-04-09T17:47:57.310Z,4.90
2023-04-09T17:50:25.521Z,5.80
2023-04-09T17:52:53.663Z,5.60
2023-04-09T17:55:23.410Z,5.30
2023-04-09T17:57:51.891Z,5.70
2023-04-09T18:00:20.622Z,5.00
2023-04-09T18:02:52.271Z,7.10
2023-04-09T18:05:22.147Z,6.50
2023-04-09T18:07:51.659Z,5.10
2023-04-09T18:10:21.301Z,5.40
2023-04-09T18:12:49.343Z,4.90
2023-04-09T18:15:18.817Z,6.20
2023-04-09T18:17:48.267Z,5.80
2023-04-09T18:20:17.316Z,5.80
2023-04-09T18:22:45.564Z,6.00
2023-04-09T18:25:13.880Z,6.80
2023-04-09T18:27:42.339Z,7.10
2023-04-09T18:30:11.072Z,7.00
2023-04-09T18:32:39.847Z,8.70
2023-04-09T18:35:08.501Z,10.20
2023-04-09T18:37:38.127Z,8.90
2023-04-09T18:40:12.584Z,5.80
2023-04-09T18:42:41.162Z,6.50
2023-04-09T18:45:09.835Z,6.60
2023-04-09T18:47:38.906Z,7.00
2023-04-09T18:50:08.084Z,6.90
2023-04-09T18:52:39.035Z,8.10
2023-04-09T18:55:07.624Z,7.10
2023-04-09T18:57:36.304Z,7.10
2023-04-09T19:00:06.334Z,8.10
2023-04-09T19:02:34.874Z,8.40
2023-04-09T19:05:07.279Z,7.90
2023-04-09T19:07:38.112Z,8.10
2023-04-09T19:10:07.133Z,7.40
2023-04-09T19:12:35.313Z,7.30
2023-04-09T19:15:04.908Z,7.40
2023-04-09T19:17:34.157Z,7.10
2023-04-09T19:20:03.135Z,5.70
2023-04-09T19:22:31.932Z,5.20
2023-04-09T19:25:00.009Z,6.30
2023-04-09T19:27:28.634Z,5.60
2023-04-09T19:29:58.986Z,6.10
2023-04-09T19:32:27.682Z,8.00
2023-04-09T19:34:56.327Z,5.90
2023-04-09T19:37:28.168Z,5.90
2023-04-09T19:39:57.869Z,5.90
2023-04-09T19:42:28.767Z,6.60
2023-04-09T19:44:56.907Z,7.30
2023-04-09T19:47:25.080Z,5.10
2023-04-09T19:49:54.737Z,5.10
2023-04-09T19:52:23.066Z,5.00
2023-04-09T19:54:57.902Z,5.60
2023-04-09T19:57:26.632Z,5.30
2023-04-09T19:59:55.617Z,5.20
2023-04-09T20:02:24.213Z,5.50
2023-04-09T20:04:52.488Z,4.90
2023-04-09T20:07:20.669Z,5.20
2023-04-09T20:09:49.700Z,5.50
2023-04-09T20:12:17.987Z,6.00
2023-04-09T20:14:46.657Z,6.50
2023-04-09T20:17:14.775Z,7.70
2023-04-09T20:19:42.822Z,6.90
2023-04-09T20:22:10.996Z,7.00
2023-04-09T20:24:39.102Z,5.50
2023-04-09T20:27:07.459Z,6.30
2023-04-09T20:29:35.568Z,6.30
2023-04-09T20:32:03.787Z,6.40
2023-04-09T20:34:32.779Z,6.20
2023-04-09T20:37:01.744Z,6.20
2023-04-09T20:39:31.360Z,6.00
2023-04-09T20:41:59.550Z,5.50
2023-04-09T20:44:28.850Z,6.70
2023-04-09T20:46:56.989Z,5.90
2023-04-09T20:49:25.137Z,6.10
2023-04-09T20:51:53.294Z,5.60
2023-04-09T20:54:23.229Z,6.50
2023-04-09T20:56:51.436Z,6.40
2023-04-09T20:59:19.709Z,6.40
2023-04-09T21:01:48.609Z,6.90
2023-04-09T21:04:17.064Z,6.40
2023-04-09T21:06:45.415Z,7.20
2023-04-09T21:09:13.974Z,7.30
2023-04-09T21:11:42.051Z,7.50
2023-04-09T21:14:11.202Z,6.90
2023-04-09T21:16:39.606Z,7.50
2023-04-09T21:19:08.155Z,8.50
2023-04-09T21:21:37.181Z,6.90
2023-04-09T21:24:05.484Z,9.60
2023-04-09T21:26:45.331Z,8.10
2023-04-09T21:29:21.445Z,8.70
2023-04-09T21:31:49.951Z,8.30
2023-04-09T21:34:18.380Z,6.20
2023-04-09T21:36:46.700Z,7.30
2023-04-09T21:39:15.029Z,6.10
2023-04-09T21:41:43.130Z,5.50
2023-04-09T21:44:11.274Z,5.70
2023-04-09T21:46:40.841Z,5.10
2023-04-09T21:49:09.406Z,5.20
2023-04-09T21:51:38.875Z,5.30
2023-04-09T21:54:08.812Z,4.70
2023-04-09T21:56:37.324Z,5.10
2023-04-09T21:59:05.704Z,5.50
2023-04-09T22:01:35.141Z,4.60
2023-04-09T22:04:03.871Z,4.30
2023-04-09T22:06:32.618Z,4.50
2023-04-09T22:09:01.849Z,3.90
2023-04-09T22:11:30.759Z,4.10
2023-04-09T22:13:58.976Z,3.60
2023-04-09T22:16:27.337Z,3.90
2023-04-09T22:18:56.309Z,4.80
2023-04-09T22:21:24.905Z,3.30
2023-04-09T22:23:53.723Z,3.90
2023-04-09T22:26:22.749Z,4.40
2023-04-09T22:28:51.118Z,4.70
2023-04-09T22:31:20.027Z,4.40
2023-04-09T22:33:48.269Z,4.40
2023-04-09T22:36:16.459Z,4.50
2023-04-09T22:38:44.729Z,5.90
2023-04-09T22:41:12.849Z,7.20
2023-04-09T22:43:41.249Z,6.20
2023-04-09T22:46:09.381Z,4.80
2023-04-09T22:48:44.153Z,5.50
2023-04-09T22:51:14.152Z,4.20
2023-04-09T22:53:42.254Z,4.40
2023-04-09T22:56:10.406Z,4.00
2023-04-09T22:58:39.193Z,3.70
2023-04-09T23:01:07.757Z,3.90
2023-04-09T23:03:36.043Z,3.60
2023-04-09T23:06:04.509Z,3.10
2023-04-09T23:08:32.709Z,3.10
2023-04-09T23:11:01.224Z,3.30
2023-04-09T23:13:29.507Z,3.30
2023-04-09T23:15:57.817Z,3.60
2023-04-09T23:18:26.198Z,3.40
2023-04-09T23:20:54.334Z,3.30
2023-04-09T23:23:22.513Z,3.40
2023-04-09T23:25:50.798Z,3.70
2023-04-09T23:28:18.885Z,4.30
2023-04-09T23:30:46.937Z,4.40
2023-04-09T23:33:15.036Z,4.00
2023-04-09T23:35:43.508Z,3.40
2023-04-09T23:38:11.735Z,3.50
2023-04-09T23:40:39.880Z,3.80
2023-04-09T23:43:08.027Z,3.40
2023-04-09T23:45:36.136Z,3.50
2023-04-09T23:48:06.243Z,4.00
2023-04-09T23:50:37.998Z,3.60
2023-04-09T23:53:06.781Z,3.40
2023-04-09T23:55:38.226Z,3.40
2023-04-09T23:58:06.457Z,3.40
